Time;durP1;ratioP1;P1;durP2;ratioP2;P2;SDS_P1;SDS_P2;PMS_P1;PMS_P2;Temp;Humidity;BMP_temperature;BMP_pressure;BME280_temperature;BME280_humidity;BME280_pressure;Samples;Min_cycle;Max_cycle;Signal;HPM_P1;HPM_P2
2023/06/14 00:02:16;;;;;;;1.73;1.60;;;16.10;68.60;;;;;;5072803;28;20971;-85
2023/06/14 00:04:43;;;;;;;3.53;1.97;;;16.10;71.00;;;;;;5073157;28;20449;-84
2023/06/14 00:07:10;;;;;;;2.00;1.90;;;16.00;70.50;;;;;;5073146;28;20468;-85
2023/06/14 00:09:36;;;;;;;4.03;2.00;;;16.00;70.70;;;;;;5074586;28;20944;-85
2023/06/14 00:12:03;;;;;;;3.67;1.97;;;16.00;71.70;;;;;;5077079;28;20476;-84
2023/06/14 00:14:32;;;;;;;5.20;2.50;;;15.90;72.60;;;;;;5076716;28;20425;-85
2023/06/14 00:16:58;;;;;;;2.50;2.10;;;15.90;72.40;;;;;;5076837;28;20472;-84
2023/06/14 00:19:25;;;;;;;5.50;1.87;;;15.80;72.90;;;;;;5076602;28;20445;-84
2023/06/14 00:21:52;;;;;;;7.20;2.07;;;15.80;71.60;;;;;;5076512;28;20483;-85
2023/06/14 00:24:20;;;;;;;6.23;2.17;;;15.70;71.90;;;;;;5076648;28;20466;-85
2023/06/14 00:26:47;;;;;;;1.90;1.70;;;15.80;71.40;;;;;;5076612;28;20476;-85
2023/06/14 00:29:14;;;;;;;2.90;1.80;;;15.70;72.60;;;;;;5076747;28;20444;-84
2023/06/14 00:31:42;;;;;;;3.20;1.90;;;15.70;72.00;;;;;;5076636;28;20477;-85
2023/06/14 00:34:09;;;;;;;3.03;1.93;;;15.70;72.20;;;;;;5076645;28;20448;-85
2023/06/14 00:36:36;;;;;;;3.50;1.90;;;15.70;73.00;;;;;;5076408;28;20518;-84
2023/06/14 00:39:03;;;;;;;4.70;2.67;;;15.60;72.40;;;;;;5076234;28;20460;-85
2023/06/14 00:41:30;;;;;;;3.43;2.73;;;15.50;72.50;;;;;;5077022;28;20472;-84
2023/06/14 00:43:57;;;;;;;2.83;2.20;;;15.50;73.10;;;;;;5076214;28;20944;-85
2023/06/14 00:46:24;;;;;;;2.03;1.87;;;15.50;72.80;;;;;;5076084;28;20477;-84
2023/06/14 00:48:52;;;;;;;2.93;2.03;;;15.40;74.20;;;;;;5076272;28;20488;-85
2023/06/14 00:51:19;;;;;;;1.93;1.57;;;15.40;73.30;;;;;;5076220;28;20507;-85
2023/06/14 00:53:47;;;;;;;3.37;1.87;;;15.40;72.50;;;;;;5076212;28;20456;-85
2023/06/14 00:56:14;;;;;;;3.20;2.30;;;15.40;73.60;;;;;;5076149;28;20541;-85
2023/06/14 00:58:41;;;;;;;2.00;1.90;;;15.30;73.90;;;;;;5075858;28;20448;-84
2023/06/14 01:01:08;;;;;;;2.73;1.93;;;15.30;73.80;;;;;;5076136;28;20441;-84
2023/06/14 01:03:35;;;;;;;2.07;1.57;;;15.30;73.00;;;;;;5076091;28;20453;-84
2023/06/14 01:06:14;;;;;;;1.93;1.67;;;15.30;73.30;;;;;;5075922;28;20476;-85
2023/06/14 01:08:51;;;;;;;2.93;1.50;;;15.30;73.90;;;;;;5076039;28;20432;-84
2023/06/14 01:11:27;;;;;;;1.57;1.47;;;15.20;72.30;;;;;;5075958;28;20504;-85
2023/06/14 01:13:55;;;;;;;2.43;1.97;;;15.20;72.80;;;;;;5075906;28;20440;-84
2023/06/14 01:16:22;;;;;;;2.00;1.80;;;15.20;72.50;;;;;;5075849;28;20465;-84
2023/06/14 01:18:49;;;;;;;2.80;2.33;;;15.10;73.50;;;;;;5075776;28;20814;-85
2023/06/14 01:21:24;;;;;;;3.83;1.90;;;15.00;73.20;;;;;;5074659;28;20483;-84
2023/06/14 01:23:54;;;;;;;2.10;1.90;;;15.00;72.70;;;;;;5075321;28;20444;-84
2023/06/14 01:26:21;;;;;;;2.37;2.00;;;15.00;73.50;;;;;;5075495;28;20476;-84
2023/06/14 01:28:50;;;;;;;1.87;1.40;;;15.00;74.20;;;;;;5075803;28;20445;-84
2023/06/14 01:31:21;;;;;;;2.37;1.47;;;14.90;73.80;;;;;;5075181;28;21013;-84
2023/06/14 01:33:50;;;;;;;1.27;1.17;;;14.90;74.20;;;;;;5075421;28;20444;-84
2023/06/14 01:36:19;;;;;;;1.43;1.30;;;14.90;73.90;;;;;;5075352;28;20473;-84
2023/06/14 01:38:48;;;;;;;1.73;1.50;;;14.80;75.00;;;;;;5075394;28;20452;-84
2023/06/14 01:41:17;;;;;;;1.87;1.77;;;14.80;75.00;;;;;;5075059;28;20449;-84
2023/06/14 01:43:44;;;;;;;2.37;2.07;;;14.70;74.30;;;;;;5075004;28;20968;-84
2023/06/14 01:46:12;;;;;;;1.83;1.43;;;14.70;75.40;;;;;;5075191;28;20525;-84
2023/06/14 01:48:39;;;;;;;2.93;1.63;;;14.70;76.00;;;;;;5075200;28;20425;-84
2023/06/14 01:51:06;;;;;;;2.83;1.70;;;14.60;75.80;;;;;;5075068;28;20491;-84
2023/06/14 01:53:32;;;;;;;3.67;2.13;;;14.50;75.70;;;;;;5075122;28;20453;-84
2023/06/14 01:55:59;;;;;;;3.33;1.77;;;14.60;75.90;;;;;;5074996;28;20835;-84
2023/06/14 01:58:28;;;;;;;3.20;1.97;;;14.50;75.90;;;;;;5074995;28;20522;-84
2023/06/14 02:00:56;;;;;;;2.17;1.33;;;14.50;75.80;;;;;;5074638;28;20486;-84
2023/06/14 02:03:23;;;;;;;3.37;1.30;;;14.40;75.60;;;;;;5074870;28;20548;-84
2023/06/14 02:05:50;;;;;;;1.30;1.20;;;14.40;76.30;;;;;;5074781;28;20468;-84
2023/06/14 02:08:16;;;;;;;5.07;2.00;;;14.40;76.20;;;;;;5074758;28;20449;-84
2023/06/14 02:10:43;;;;;;;2.10;1.60;;;14.30;76.10;;;;;;5074780;28;20449;-84
2023/06/14 02:13:10;;;;;;;1.33;1.33;;;14.30;76.40;;;;;;5074606;28;20999;-84
2023/06/14 02:15:38;;;;;;;1.37;1.23;;;14.20;76.40;;;;;;5074546;28;20453;-84
2023/06/14 02:18:05;;;;;;;4.50;1.90;;;14.20;76.00;;;;;;5074592;28;20453;-84
2023/06/14 02:20:32;;;;;;;2.77;2.10;;;14.20;77.00;;;;;;5074685;28;20453;-84
2023/06/14 02:22:59;;;;;;;1.50;1.33;;;14.20;77.80;;;;;;5074093;28;20481;-84
2023/06/14 02:25:27;;;;;;;1.70;1.60;;;14.10;77.50;;;;;;5074182;28;20437;-84
2023/06/14 02:27:54;;;;;;;2.93;1.50;;;14.10;78.30;;;;;;5074505;28;20445;-84
2023/06/14 02:30:21;;;;;;;1.80;1.43;;;14.10;78.20;;;;;;5074106;28;20492;-84
2023/06/14 02:32:51;;;;;;;3.47;2.20;;;14.10;78.30;;;;;;5074462;28;20476;-84
2023/06/14 02:35:17;;;;;;;1.80;1.70;;;14.00;78.00;;;;;;5075169;28;20456;-84
2023/06/14 02:37:44;;;;;;;2.90;1.77;;;14.10;77.90;;;;;;5074166;28;20855;-84
2023/06/14 02:40:12;;;;;;;4.77;1.57;;;14.00;78.50;;;;;;5074214;28;20440;-84
2023/06/14 02:42:38;;;;;;;1.70;1.47;;;14.00;79.30;;;;;;5074076;28;20459;-84
2023/06/14 02:45:06;;;;;;;3.13;2.00;;;14.00;78.90;;;;;;5073873;28;20448;-84
2023/06/14 02:47:33;;;;;;;2.20;2.00;;;14.00;80.00;;;;;;5073941;28;20468;-84
2023/06/14 02:50:02;;;;;;;1.63;1.53;;;14.00;79.60;;;;;;5074036;28;20456;-84
2023/06/14 02:52:29;;;;;;;1.67;1.57;;;14.00;79.60;;;;;;5073857;28;20480;-84
2023/06/14 02:54:55;;;;;;;3.33;1.73;;;14.00;80.10;;;;;;5073920;28;20445;-84
2023/06/14 02:57:23;;;;;;;2.50;2.20;;;13.90;80.60;;;;;;5073832;28;20469;-84
2023/06/14 02:59:50;;;;;;;4.93;2.40;;;13.90;81.00;;;;;;5073548;28;20453;-84
2023/06/14 03:02:16;;;;;;;5.80;2.17;;;13.90;81.00;;;;;;5073635;28;20457;-84
2023/06/14 03:04:44;;;;;;;3.57;2.17;;;13.90;82.20;;;;;;5073822;28;20781;-84
2023/06/14 03:07:13;;;;;;;3.40;1.70;;;13.80;82.00;;;;;;5073349;28;20504;-84
2023/06/14 03:09:40;;;;;;;2.77;2.00;;;13.80;81.30;;;;;;5073750;28;20461;-84
2023/06/14 03:12:09;;;;;;;1.40;1.23;;;13.80;81.30;;;;;;5073592;28;20513;-84
2023/06/14 03:14:36;;;;;;;2.97;1.70;;;13.70;81.40;;;;;;5073318;28;20459;-84
2023/06/14 03:17:04;;;;;;;1.30;1.20;;;13.60;82.20;;;;;;5073573;28;20831;-84
2023/06/14 03:19:31;;;;;;;4.10;2.03;;;13.60;82.10;;;;;;5073594;28;20476;-84
2023/06/14 03:21:58;;;;;;;1.97;1.30;;;13.50;81.40;;;;;;5073179;28;20472;-84
2023/06/14 03:24:27;;;;;;;1.80;1.30;;;13.60;82.50;;;;;;5073897;28;20834;-84
2023/06/14 03:26:53;;;;;;;1.40;1.30;;;13.50;82.30;;;;;;5073444;28;20514;-84
2023/06/14 03:29:20;;;;;;;2.67;1.67;;;13.50;82.50;;;;;;5073472;28;20471;-84
2023/06/14 03:31:58;;;;;;;1.90;1.60;;;13.40;82.40;;;;;;5073026;28;20481;-84
2023/06/14 03:34:25;;;;;;;2.70;1.57;;;13.40;81.90;;;;;;5073478;28;20436;-84
2023/06/14 03:36:52;;;;;;;1.90;1.70;;;13.40;81.90;;;;;;5073310;28;20469;-84
2023/06/14 03:39:19;;;;;;;3.50;1.50;;;13.40;82.20;;;;;;5073085;28;20452;-84
2023/06/14 03:41:47;;;;;;;16.27;1.60;;;13.40;81.90;;;;;;5073176;28;20806;-84
2023/06/14 03:44:16;;;;;;;4.30;2.27;;;13.40;82.50;;;;;;5075830;28;20963;-84
2023/06/14 03:46:43;;;;;;;1.50;1.40;;;13.40;82.70;;;;;;5079881;28;20491;-84
2023/06/14 03:49:09;;;;;;;2.10;1.53;;;13.60;82.50;;;;;;5080922;28;20447;-84
2023/06/14 03:51:36;;;;;;;1.87;1.70;;;13.60;82.10;;;;;;5079914;28;20451;-84
2023/06/14 03:54:03;;;;;;;2.10;1.63;;;13.50;81.60;;;;;;5079864;28;20444;-85
2023/06/14 03:56:30;;;;;;;3.00;1.17;;;13.60;82.60;;;;;;5079865;28;20465;-84
2023/06/14 03:58:58;;;;;;;3.20;2.60;;;13.60;82.90;;;;;;5079585;28;20955;-84
2023/06/14 04:01:27;;;;;;;3.90;2.47;;;13.60;83.00;;;;;;5079825;28;20428;-83
2023/06/14 04:03:53;;;;;;;4.37;2.30;;;13.80;84.20;;;;;;5079862;28;20456;-84
2023/06/14 04:06:20;;;;;;;1.73;1.30;;;13.70;83.70;;;;;;5079898;28;20468;-85
2023/06/14 04:08:49;;;;;;;2.60;2.10;;;13.80;84.50;;;;;;5079714;28;20448;-85
2023/06/14 04:11:16;;;;;;;3.23;1.80;;;13.80;84.90;;;;;;5079923;28;20436;-84
2023/06/14 04:13:42;;;;;;;3.67;1.93;;;13.80;84.70;;;;;;5079321;28;20509;-84
2023/06/14 04:16:10;;;;;;;1.87;1.73;;;14.20;85.10;;;;;;5079451;28;20449;-85
2023/06/14 04:18:37;;;;;;;1.33;1.17;;;13.90;84.20;;;;;;5079688;28;20451;-85
2023/06/14 04:21:04;;;;;;;2.43;1.30;;;13.90;84.10;;;;;;5079553;28;20445;-85
2023/06/14 04:23:32;;;;;;;2.83;1.90;;;14.00;84.60;;;;;;5079643;28;20778;-85
2023/06/14 04:26:02;;;;;;;3.50;1.67;;;14.00;84.60;;;;;;5079558;28;20511;-85
2023/06/14 04:28:29;;;;;;;1.87;1.77;;;14.00;85.10;;;;;;5079921;28;20451;-85
2023/06/14 04:31:01;;;;;;;2.97;1.27;;;14.10;84.80;;;;;;5079550;28;20440;-85
2023/06/14 04:33:29;;;;;;;4.40;2.10;;;14.10;85.60;;;;;;5079474;28;20504;-84
2023/06/14 04:35:56;;;;;;;2.70;1.73;;;14.10;85.40;;;;;;5079264;28;20457;-85
2023/06/14 04:38:25;;;;;;;2.23;1.67;;;14.10;84.50;;;;;;5079673;28;20940;-85
2023/06/14 04:40:52;;;;;;;1.60;1.50;;;14.20;84.60;;;;;;5080323;28;20459;-85
2023/06/14 04:43:24;;;;;;;2.70;1.93;;;14.20;85.50;;;;;;5079635;28;20448;-85
2023/06/14 04:45:51;;;;;;;2.13;1.93;;;14.20;84.80;;;;;;5079553;28;20824;-85
2023/06/14 04:48:19;;;;;;;2.97;1.80;;;14.20;84.70;;;;;;5079631;28;20509;-85
2023/06/14 04:50:47;;;;;;;3.57;2.00;;;14.30;84.70;;;;;;5079548;28;20468;-85
2023/06/14 04:53:14;;;;;;;7.30;2.40;;;14.40;84.50;;;;;;5079293;28;21006;-84
2023/06/14 04:55:44;;;;;;;1.80;1.60;;;14.40;84.20;;;;;;5076817;28;20448;-85
2023/06/14 04:58:12;;;;;;;1.53;1.43;;;14.40;84.60;;;;;;5076346;28;20425;-85
2023/06/14 05:00:39;;;;;;;3.80;2.70;;;14.40;85.40;;;;;;5076227;28;20452;-85
2023/06/14 05:03:06;;;;;;;3.17;1.90;;;14.50;84.90;;;;;;5076332;28;20452;-85
2023/06/14 05:05:34;;;;;;;5.23;2.60;;;14.50;83.80;;;;;;5076151;28;20448;-85
2023/06/14 05:08:02;;;;;;;4.30;1.87;;;14.60;85.80;;;;;;5076146;28;20826;-85
2023/06/14 05:10:29;;;;;;;2.03;1.87;;;14.60;85.60;;;;;;5076262;28;20452;-85
2023/06/14 05:12:56;;;;;;;2.50;2.30;;;14.60;85.30;;;;;;5075625;28;21022;-85
2023/06/14 05:15:25;;;;;;;5.73;2.87;;;14.70;85.50;;;;;;5075936;28;20452;-84
2023/06/14 05:17:55;;;;;;;3.03;2.30;;;14.70;85.30;;;;;;5075898;28;20449;-85
2023/06/14 05:20:22;;;;;;;1.70;1.40;;;14.80;84.30;;;;;;5075897;28;20537;-85
2023/06/14 05:22:51;;;;;;;3.43;2.00;;;14.90;83.90;;;;;;5075318;28;20509;-85
2023/06/14 05:25:19;;;;;;;4.97;2.20;;;15.10;83.80;;;;;;5075744;28;20502;-85
2023/06/14 05:27:46;;;;;;;3.37;2.40;;;15.00;84.80;;;;;;5075668;28;20469;-85
2023/06/14 05:30:14;;;;;;;3.40;2.33;;;15.10;83.90;;;;;;5075452;28;20971;-85
2023/06/14 05:32:41;;;;;;;2.27;1.70;;;15.30;82.80;;;;;;5075621;28;20530;-85
2023/06/14 05:35:09;;;;;;;3.23;1.60;;;15.30;83.20;;;;;;5075933;28;20523;-85
2023/06/14 05:37:35;;;;;;;2.87;2.10;;;15.40;83.90;;;;;;5075317;28;20879;-85
2023/06/14 05:40:05;;;;;;;1.80;1.60;;;15.50;83.60;;;;;;5075139;28;20945;-85
2023/06/14 05:42:33;;;;;;;2.17;1.97;;;15.60;82.90;;;;;;5075431;28;20449;-85
2023/06/14 05:45:00;;;;;;;2.03;1.47;;;15.70;83.30;;;;;;5075101;28;20950;-85
2023/06/14 05:47:27;;;;;;;2.50;1.90;;;15.80;81.90;;;;;;5075234;28;20534;-85
2023/06/14 05:49:54;;;;;;;3.03;2.30;;;15.90;81.90;;;;;;5075391;28;20475;-85
2023/06/14 05:52:21;;;;;;;2.40;2.10;;;16.00;81.20;;;;;;5075264;28;20456;-85
2023/06/14 05:54:48;;;;;;;1.87;1.77;;;16.20;80.90;;;;;;5075316;28;20904;-85
2023/06/14 05:57:15;;;;;;;4.47;1.80;;;16.40;78.40;;;;;;5075161;28;20480;-85
2023/06/14 05:59:43;;;;;;;3.77;1.57;;;16.60;79.60;;;;;;5075147;28;20900;-85
2023/06/14 06:02:09;;;;;;;2.77;2.30;;;16.70;80.10;;;;;;5075162;28;20437;-85
2023/06/14 06:04:36;;;;;;;3.20;1.90;;;16.80;78.70;;;;;;5075077;28;20448;-85
2023/06/14 06:07:03;;;;;;;4.30;2.77;;;17.10;77.60;;;;;;5074581;28;20475;-85
2023/06/14 06:09:30;;;;;;;2.30;1.90;;;17.30;79.10;;;;;;5075163;28;20448;-86
2023/06/14 06:11:57;;;;;;;1.80;1.67;;;17.50;78.80;;;;;;5075060;28;20437;-86
2023/06/14 06:14:23;;;;;;;2.57;1.80;;;17.80;77.50;;;;;;5074569;28;20483;-86
2023/06/14 06:16:53;;;;;;;2.50;2.17;;;17.90;77.00;;;;;;5074823;28;20479;-86
2023/06/14 06:19:19;;;;;;;2.93;2.00;;;18.30;76.50;;;;;;5075033;28;20453;-86
2023/06/14 06:21:46;;;;;;;2.77;2.20;;;18.50;75.80;;;;;;5074589;28;20478;-86
2023/06/14 06:24:13;;;;;;;2.60;2.10;;;18.80;74.40;;;;;;5074441;28;20540;-86
2023/06/14 06:26:40;;;;;;;2.97;2.43;;;19.20;74.60;;;;;;5074574;28;20465;-86
2023/06/14 06:29:07;;;;;;;4.00;2.20;;;19.50;72.50;;;;;;5074386;28;20448;-86
2023/06/14 06:31:35;;;;;;;2.80;2.00;;;19.90;71.70;;;;;;5074575;28;20448;-86
2023/06/14 06:34:03;;;;;;;2.93;2.67;;;20.20;70.50;;;;;;5074256;28;20471;-86
2023/06/14 06:36:30;;;;;;;2.27;1.93;;;20.70;68.60;;;;;;5074443;28;20468;-86
2023/06/14 06:38:57;;;;;;;3.17;2.30;;;21.00;68.30;;;;;;5074408;28;20476;-86
2023/06/14 06:41:23;;;;;;;2.67;2.37;;;21.30;67.20;;;;;;5074133;28;20444;-86
2023/06/14 06:43:50;;;;;;;3.93;2.03;;;21.50;64.80;;;;;;5074148;28;20443;-86
2023/06/14 06:46:18;;;;;;;2.20;1.90;;;21.70;65.90;;;;;;5074150;28;20491;-86
2023/06/14 06:48:45;;;;;;;4.27;2.40;;;21.90;65.60;;;;;;5074213;28;20202;-86
2023/06/14 06:51:13;;;;;;;6.53;1.60;;;22.00;65.50;;;;;;5074167;28;20209;-86
2023/06/14 06:53:44;;;;;;;2.40;2.20;;;22.10;65.00;;;;;;5074091;28;20530;-85
2023/06/14 06:56:10;;;;;;;4.87;2.50;;;22.10;63.50;;;;;;5078565;28;20323;-87
2023/06/14 06:58:37;;;;;;;2.07;1.70;;;22.30;62.60;;;;;;5074579;28;20209;-86
2023/06/14 07:01:04;;;;;;;2.50;2.30;;;22.30;62.60;;;;;;5074175;28;20448;-86
2023/06/14 07:03:31;;;;;;;2.57;2.30;;;22.50;60.00;;;;;;5074136;28;20440;-86
2023/06/14 07:05:58;;;;;;;4.77;2.23;;;22.60;61.40;;;;;;5073980;28;20882;-86
2023/06/14 07:08:26;;;;;;;2.67;2.20;;;22.60;61.00;;;;;;5074006;28;20514;-86
2023/06/14 07:10:53;;;;;;;3.43;1.90;;;22.60;61.30;;;;;;5073820;28;20293;-85
2023/06/14 07:13:20;;;;;;;2.23;1.97;;;22.60;62.50;;;;;;5073770;28;20492;-86
2023/06/14 07:15:47;;;;;;;2.90;2.57;;;22.50;63.20;;;;;;5074206;28;20226;-86
2023/06/14 07:18:13;;;;;;;4.27;2.67;;;22.80;63.50;;;;;;5073290;28;20201;-86
2023/06/14 07:20:40;;;;;;;2.07;1.97;;;22.90;62.80;;;;;;5073589;28;20206;-85
2023/06/14 07:23:07;;;;;;;3.73;2.20;;;23.00;62.80;;;;;;5073411;28;20234;-86
2023/06/14 07:25:35;;;;;;;3.17;1.60;;;23.00;62.90;;;;;;5073524;28;20206;-86
2023/06/14 07:28:02;;;;;;;1.93;1.80;;;23.20;63.10;;;;;;5073614;28;20204;-85
2023/06/14 07:30:29;;;;;;;2.87;2.43;;;23.40;59.00;;;;;;5073732;28;20566;-85
2023/06/14 07:32:56;;;;;;;2.00;1.83;;;23.60;58.20;;;;;;5073666;28;20225;-85
2023/06/14 07:35:23;;;;;;;3.10;1.90;;;23.60;58.30;;;;;;5073632;28;20208;-85
2023/06/14 07:37:50;;;;;;;2.90;2.23;;;23.70;58.10;;;;;;5073284;28;20257;-84
2023/06/14 07:40:17;;;;;;;12.70;2.45;;;24.00;57.90;;;;;;5073435;28;20209;-85
2023/06/14 07:42:45;;;;;;;5.30;1.83;;;24.10;56.00;;;;;;5073400;28;20213;-84
2023/06/14 07:45:13;;;;;;;2.10;1.90;;;24.30;57.30;;;;;;5073394;28;20565;-85
2023/06/14 07:47:40;;;;;;;3.00;1.85;;;24.40;54.50;;;;;;5073361;28;20221;-85
2023/06/14 07:50:07;;;;;;;3.05;2.25;;;24.50;54.40;;;;;;5082278;28;20574;-85
2023/06/14 07:52:34;;;;;;;3.30;2.00;;;24.70;54.50;;;;;;5073202;28;20204;-84
2023/06/14 07:55:01;;;;;;;4.10;1.90;;;24.90;54.40;;;;;;5073147;28;20582;-85
2023/06/14 07:57:28;;;;;;;1.70;1.60;;;25.10;53.10;;;;;;5073146;28;20218;-84
2023/06/14 07:59:56;;;;;;;3.65;2.17;;;25.30;51.80;;;;;;5073068;28;20289;-83
2023/06/14 08:02:23;;;;;;;2.47;1.60;;;25.40;52.70;;;;;;5073171;28;20202;-84
2023/06/14 08:04:49;;;;;;;2.65;2.00;;;25.60;52.90;;;;;;5072884;28;20681;-85
2023/06/14 08:07:16;;;;;;;2.47;2.25;;;25.90;53.10;;;;;;5073011;28;20595;-84
2023/06/14 08:09:43;;;;;;;2.28;1.90;;;26.40;52.80;;;;;;5073085;28;20211;-85
2023/06/14 08:12:10;;;;;;;2.20;2.08;;;27.00;51.40;;;;;;5073226;28;20206;-84
2023/06/14 08:14:37;;;;;;;2.13;2.03;;;27.50;51.40;;;;;;5073001;28;20587;-84
2023/06/14 08:17:05;;;;;;;3.33;2.20;;;28.30;51.90;;;;;;5072884;28;20223;-85
2023/06/14 08:19:32;;;;;;;2.65;2.55;;;29.40;49.90;;;;;;5072924;28;20573;-86
2023/06/14 08:21:59;;;;;;;2.63;2.42;;;30.50;49.10;;;;;;5072628;28;20244;-85
2023/06/14 08:24:27;;;;;;;2.40;2.20;;;31.50;48.80;;;;;;5072919;28;20205;-85
2023/06/14 08:26:54;;;;;;;2.15;1.95;;;32.60;46.10;;;;;;5072823;28;20226;-85
2023/06/14 08:29:20;;;;;;;2.40;2.20;;;33.30;43.70;;;;;;5073404;28;20220;-85
2023/06/14 08:31:48;;;;;;;2.28;1.98;;;33.30;43.90;;;;;;5076463;28;20268;-85
2023/06/14 08:34:16;;;;;;;2.22;2.13;;;32.90;43.70;;;;;;5076626;28;20235;-86
2023/06/14 08:36:43;;;;;;;2.15;1.95;;;32.10;43.90;;;;;;5076220;28;20714;-86
2023/06/14 08:39:09;;;;;;;2.35;1.90;;;31.30;46.00;;;;;;5076646;28;20208;-85
2023/06/14 08:41:36;;;;;;;1.83;1.73;;;30.50;45.80;;;;;;5076168;28;20663;-85
2023/06/14 08:44:04;;;;;;;2.25;1.85;;;29.90;47.40;;;;;;5076606;28;20203;-86
2023/06/14 08:46:33;;;;;;;1.95;1.85;;;29.50;48.90;;;;;;5076054;28;20819;-85
2023/06/14 08:49:02;;;;;;;2.72;2.53;;;29.40;48.40;;;;;;5076342;28;20569;-84
2023/06/14 08:51:34;;;;;;;2.65;2.45;;;29.40;48.60;;;;;;5076286;28;20209;-84
2023/06/14 08:54:01;;;;;;;2.50;2.30;;;29.80;47.50;;;;;;5075897;28;20755;-84
2023/06/14 08:56:29;;;;;;;2.95;2.75;;;30.40;47.90;;;;;;5076162;28;20224;-85
2023/06/14 08:59:00;;;;;;;1.88;1.77;;;30.80;45.90;;;;;;5076161;28;20204;-84
2023/06/14 09:01:26;;;;;;;2.33;2.05;;;31.00;45.40;;;;;;5076114;28;20189;-84
2023/06/14 09:03:54;;;;;;;4.47;2.13;;;30.90;45.10;;;;;;5076079;28;20202;-84
2023/06/14 09:06:24;;;;;;;3.80;2.08;;;30.40;46.00;;;;;;5075981;28;20291;-84
2023/06/14 09:08:53;;;;;;;2.35;2.15;;;29.70;46.80;;;;;;5075632;28;20742;-84
2023/06/14 09:11:20;;;;;;;2.55;2.35;;;29.20;47.60;;;;;;5075925;28;20206;-84
2023/06/14 09:13:47;;;;;;;2.53;2.33;;;28.80;46.90;;;;;;5075551;28;20224;-84
2023/06/14 09:16:14;;;;;;;3.28;2.35;;;28.20;48.50;;;;;;5075761;28;20229;-84
2023/06/14 09:18:43;;;;;;;2.53;2.33;;;27.70;49.20;;;;;;5075741;28;20204;-84
2023/06/14 09:21:11;;;;;;;3.30;2.35;;;27.40;50.20;;;;;;5075491;28;20288;-84
2023/06/14 09:23:39;;;;;;;2.33;2.22;;;27.10;48.30;;;;;;5075728;28;20201;-83
2023/06/14 09:26:10;;;;;;;2.53;2.13;;;26.70;49.40;;;;;;5075602;28;20264;-83
2023/06/14 09:28:41;;;;;;;2.47;2.28;;;26.40;50.40;;;;;;5075363;28;20678;-85
2023/06/14 09:31:09;;;;;;;2.90;2.65;;;26.10;51.00;;;;;;5075592;28;20189;-83
2023/06/14 09:33:36;;;;;;;5.10;2.58;;;25.90;52.70;;;;;;5075134;28;20776;-83
2023/06/14 09:36:04;;;;;;;4.22;3.15;;;25.90;52.50;;;;;;5075156;28;20717;-84
2023/06/14 09:38:30;;;;;;;2.42;2.22;;;25.80;52.40;;;;;;5075526;28;20201;-84
2023/06/14 09:40:58;;;;;;;2.55;2.35;;;25.90;53.40;;;;;;5075420;28;20198;-85
2023/06/14 09:43:27;;;;;;;2.47;2.28;;;25.90;52.00;;;;;;5074726;28;20202;-84
2023/06/14 09:45:55;;;;;;;3.90;2.35;;;25.80;53.70;;;;;;5074919;28;20226;-84
2023/06/14 09:48:22;;;;;;;2.38;2.17;;;25.90;52.60;;;;;;5075245;28;20209;-84
2023/06/14 09:50:51;;;;;;;2.33;2.20;;;25.70;52.00;;;;;;5075294;28;20206;-84
2023/06/14 09:53:23;;;;;;;5.13;2.53;;;25.60;51.70;;;;;;5074850;28;20670;-84
2023/06/14 09:55:51;;;;;;;2.83;2.22;;;25.40;52.90;;;;;;5074810;28;20218;-84
2023/06/14 09:58:21;;;;;;;2.38;2.28;;;25.60;52.60;;;;;;5075044;28;20209;-84
2023/06/14 10:00:52;;;;;;;4.13;3.03;;;25.60;52.30;;;;;;5075157;28;20570;-86
2023/06/14 10:03:23;;;;;;;4.20;2.03;;;25.50;51.20;;;;;;5075623;28;20187;-84
2023/06/14 10:05:52;;;;;;;2.53;2.30;;;25.50;51.20;;;;;;5074900;28;20222;-84
2023/06/14 10:08:20;;;;;;;3.22;2.28;;;25.20;49.30;;;;;;5074913;28;20209;-85
2023/06/14 10:10:47;;;;;;;2.35;1.95;;;25.10;48.30;;;;;;5074548;28;20677;-84
2023/06/14 10:13:15;;;;;;;2.97;1.90;;;25.00;49.30;;;;;;5074570;28;20191;-84
2023/06/14 10:15:49;;;;;;;4.38;2.05;;;25.10;49.80;;;;;;5074238;28;20713;-84
2023/06/14 10:18:25;;;;;;;4.30;1.88;;;25.10;50.60;;;;;;5074396;28;20190;-84
2023/06/14 10:21:00;;;;;;;8.05;3.33;;;25.10;49.30;;;;;;5074106;28;20186;-84
2023/06/14 10:23:29;;;;;;;2.05;1.88;;;25.30;50.00;;;;;;5074432;28;20178;-87
2023/06/14 10:25:59;;;;;;;2.30;1.77;;;25.30;50.20;;;;;;5074203;28;20222;-85
2023/06/14 10:28:26;;;;;;;2.60;2.10;;;25.20;49.80;;;;;;5074684;28;20197;-84
2023/06/14 10:31:14;;;;;;;4.07;2.53;;;25.20;50.90;;;;;;5074125;28;20582;-86
2023/06/14 10:33:51;;;;;;;3.13;2.92;;;25.20;51.30;;;;;;5071062;28;20257;-84
2023/06/14 10:36:28;;;;;;;5.78;2.75;;;25.20;51.60;;;;;;5074302;28;20221;-84
2023/06/14 10:39:00;;;;;;;2.13;2.03;;;25.40;52.60;;;;;;5074315;28;20233;-84
2023/06/14 10:41:28;;;;;;;4.45;2.58;;;25.50;50.60;;;;;;5074287;28;20191;-84
2023/06/14 10:44:28;;;;;;;1.92;1.83;;;25.50;51.60;;;;;;5074205;28;20198;-84
2023/06/14 10:46:55;;;;;;;3.70;2.35;;;25.30;51.40;;;;;;5074114;28;20226;-85
2023/06/14 10:49:40;;;;;;;2.85;2.45;;;25.20;51.40;;;;;;5074178;28;20205;-85
2023/06/14 10:52:11;;;;;;;2.75;2.10;;;24.90;50.40;;;;;;5073792;28;20707;-85
2023/06/14 10:54:38;;;;;;;2.75;2.10;;;24.70;50.70;;;;;;5073049;28;20206;-84
2023/06/14 10:57:08;;;;;;;2.30;2.10;;;24.80;50.70;;;;;;5073922;28;20304;-85
2023/06/14 10:59:35;;;;;;;2.80;2.20;;;24.70;51.10;;;;;;5073947;28;20228;-85
2023/06/14 11:02:28;;;;;;;1.95;1.70;;;25.10;50.90;;;;;;5073837;28;20202;-85
2023/06/14 11:05:01;;;;;;;3.53;2.47;;;25.40;50.80;;;;;;5073935;28;20290;-86
2023/06/14 11:07:44;;;;;;;3.05;2.85;;;25.50;49.70;;;;;;5073508;28;20721;-85
2023/06/14 11:10:23;;;;;;;2.70;2.50;;;25.20;50.00;;;;;;5073866;28;20197;-85
2023/06/14 11:12:51;;;;;;;2.88;2.67;;;25.30;51.50;;;;;;5073811;28;20251;-85
2023/06/14 11:15:18;;;;;;;7.50;2.40;;;25.40;50.80;;;;;;5073592;28;20237;-85
2023/06/14 11:17:53;;;;;;;2.25;2.15;;;25.30;50.70;;;;;;5073622;28;20225;-85
2023/06/14 11:20:21;;;;;;;2.10;2.00;;;25.30;50.50;;;;;;5073692;28;20185;-84
2023/06/14 11:22:48;;;;;;;2.63;2.17;;;25.50;50.50;;;;;;5073446;28;20241;-85
2023/06/14 11:25:15;;;;;;;2.15;1.98;;;25.50;49.70;;;;;;5073515;28;20206;-85
2023/06/14 11:27:43;;;;;;;3.53;2.25;;;25.40;49.90;;;;;;5073534;28;20599;-85
2023/06/14 11:30:10;;;;;;;3.60;2.53;;;25.20;49.00;;;;;;5073307;28;20198;-84
2023/06/14 11:32:37;;;;;;;3.33;2.20;;;25.30;50.40;;;;;;5073139;28;20201;-85
2023/06/14 11:35:05;;;;;;;2.40;2.20;;;25.60;51.00;;;;;;5073412;28;20249;-85
2023/06/14 11:37:34;;;;;;;1.75;1.65;;;25.80;51.60;;;;;;5073516;28;20275;-85
2023/06/14 11:40:01;;;;;;;3.05;2.05;;;26.00;50.20;;;;;;5073543;28;20202;-86
2023/06/14 11:42:28;;;;;;;4.28;2.58;;;26.00;50.20;;;;;;5073956;28;20210;-86
2023/06/14 11:44:55;;;;;;;2.10;2.00;;;25.80;50.30;;;;;;5073343;28;20285;-85
2023/06/14 11:47:22;;;;;;;2.80;2.40;;;25.80;50.30;;;;;;5073322;28;20226;-85
2023/06/14 11:49:49;;;;;;;5.20;2.35;;;25.60;50.60;;;;;;5073352;28;20202;-85
2023/06/14 11:52:16;;;;;;;2.15;1.95;;;25.40;52.30;;;;;;5073027;28;20695;-86
2023/06/14 11:54:44;;;;;;;2.53;2.08;;;25.60;51.30;;;;;;5073226;28;20339;-85
2023/06/14 11:57:11;;;;;;;1.60;1.50;;;25.70;51.40;;;;;;5073435;28;20221;-86
2023/06/14 11:59:44;;;;;;;2.28;2.10;;;25.70;50.10;;;;;;5073288;28;20209;-85
2023/06/14 12:02:14;;;;;;;3.00;2.72;;;25.60;50.60;;;;;;5073401;28;20208;-85
2023/06/14 12:04:41;;;;;;;3.55;2.22;;;25.40;50.70;;;;;;5073219;28;20670;-85
2023/06/14 12:07:15;;;;;;;2.38;2.17;;;25.40;51.40;;;;;;5077049;28;20728;-85
2023/06/14 12:09:43;;;;;;;1.85;1.63;;;25.40;51.60;;;;;;5077400;28;20206;-84
2023/06/14 12:12:13;;;;;;;2.75;2.33;;;25.40;51.60;;;;;;5077115;28;20212;-86
2023/06/14 12:14:42;;;;;;;2.85;2.60;;;25.40;51.50;;;;;;5077206;28;20210;-85
2023/06/14 12:17:09;;;;;;;4.57;2.50;;;25.30;50.60;;;;;;5077033;28;20217;-86
2023/06/14 12:19:43;;;;;;;2.50;2.00;;;25.10;51.20;;;;;;5076698;28;20237;-85
2023/06/14 12:22:11;;;;;;;2.55;2.35;;;25.10;51.90;;;;;;5076663;28;20244;-85
2023/06/14 12:24:39;;;;;;;4.32;2.40;;;24.90;52.10;;;;;;5076718;28;20677;-85
2023/06/14 12:27:07;;;;;;;2.30;2.17;;;24.90;52.40;;;;;;5076865;28;20253;-85
2023/06/14 12:29:35;;;;;;;2.55;2.35;;;24.90;52.20;;;;;;5077043;28;20198;-85
2023/06/14 12:32:02;;;;;;;2.00;1.80;;;25.00;51.70;;;;;;5076841;28;20206;-85
2023/06/14 12:34:30;;;;;;;2.25;2.15;;;24.90;51.10;;;;;;5076516;28;20212;-85
2023/06/14 12:36:59;;;;;;;2.38;2.17;;;24.90;51.60;;;;;;5076333;28;20759;-86
2023/06/14 12:39:25;;;;;;;2.95;2.15;;;24.70;53.00;;;;;;5076369;28;20204;-85
2023/06/14 12:41:52;;;;;;;2.20;2.00;;;24.50;51.90;;;;;;5076443;28;20681;-86
2023/06/14 12:44:19;;;;;;;2.47;2.27;;;24.50;52.00;;;;;;5076637;28;20202;-85
2023/06/14 12:46:47;;;;;;;2.85;2.45;;;24.40;53.50;;;;;;5076478;28;20226;-85
2023/06/14 12:49:14;;;;;;;1.63;1.52;;;24.50;53.90;;;;;;5076516;28;20297;-87
2023/06/14 12:51:41;;;;;;;3.33;2.60;;;24.60;52.90;;;;;;5076175;28;20194;-85
2023/06/14 12:54:08;;;;;;;2.50;2.15;;;24.70;52.40;;;;;;5076014;28;20198;-85